sensor_id;sensor_type;location;lat;lon;timestamp;P1;durP1;ratioP1;P2;durP2;ratioP2
70385;SDS011;63206;55.650;37.500;2023-04-06T00:02:36;10.98;;;4.28;;
70385;SDS011;63206;55.650;37.500;2023-04-06T00:05:23;9.85;;;4.35;;
70385;SDS011;63206;55.650;37.500;2023-04-06T00:07:53;14.32;;;4.55;;
70385;SDS011;63206;55.650;37.500;2023-04-06T00:10:35;10.27;;;3.90;;
70385;SDS011;63206;55.650;37.500;2023-04-06T00:13:15;10.07;;;4.70;;
70385;SDS011;63206;55.650;37.500;2023-04-06T00:15:53;10.23;;;4.28;;
70385;SDS011;63206;55.650;37.500;2023-04-06T00:18:33;10.13;;;4.40;;
70385;SDS011;63206;55.650;37.500;2023-04-06T00:21:13;10.82;;;4.63;;
70385;SDS011;63206;55.650;37.500;2023-04-06T00:23:54;11.80;;;4.82;;
70385;SDS011;63206;55.650;37.500;2023-04-06T00:26:41;11.38;;;4.47;;
70385;SDS011;63206;55.650;37.500;2023-04-06T00:29:24;10.40;;;4.10;;
70385;SDS011;63206;55.650;37.500;2023-04-06T00:32:11;12.32;;;4.65;;
70385;SDS011;63206;55.650;37.500;2023-04-06T00:34:58;10.85;;;5.05;;
70385;SDS011;63206;55.650;37.500;2023-04-06T00:37:30;13.65;;;5.00;;
70385;SDS011;63206;55.650;37.500;2023-04-06T00:40:17;10.32;;;4.78;;
70385;SDS011;63206;55.650;37.500;2023-04-06T00:43:03;10.65;;;4.28;;
70385;SDS011;63206;55.650;37.500;2023-04-06T00:45:47;10.65;;;4.32;;
70385;SDS011;63206;55.650;37.500;2023-04-06T00:48:33;13.73;;;4.82;;
70385;SDS011;63206;55.650;37.500;2023-04-06T00:51:17;10.68;;;4.40;;
70385;SDS011;63206;55.650;37.500;2023-04-06T00:53:52;9.88;;;4.47;;
70385;SDS011;63206;55.650;37.500;2023-04-06T00:56:41;11.25;;;4.55;;
70385;SDS011;63206;55.650;37.500;2023-04-06T00:59:13;10.10;;;4.72;;
70385;SDS011;63206;55.650;37.500;2023-04-06T01:01:53;10.48;;;4.85;;
70385;SDS011;63206;55.650;37.500;2023-04-06T01:04:53;11.75;;;4.72;;
70385;SDS011;63206;55.650;37.500;2023-04-06T01:07:35;10.05;;;4.70;;
70385;SDS011;63206;55.650;37.500;2023-04-06T01:10:38;9.73;;;4.32;;
70385;SDS011;63206;55.650;37.500;2023-04-06T01:13:14;11.10;;;4.93;;
70385;SDS011;63206;55.650;37.500;2023-04-06T01:16:18;10.95;;;4.25;;
70385;SDS011;63206;55.650;37.500;2023-04-06T01:19:18;10.73;;;4.88;;
70385;SDS011;63206;55.650;37.500;2023-04-06T01:22:00;11.25;;;4.88;;
70385;SDS011;63206;55.650;37.500;2023-04-06T01:24:53;9.90;;;4.63;;
70385;SDS011;63206;55.650;37.500;2023-04-06T01:27:50;10.98;;;4.28;;
70385;SDS011;63206;55.650;37.500;2023-04-06T01:30:48;10.05;;;4.65;;
70385;SDS011;63206;55.650;37.500;2023-04-06T01:33:43;12.48;;;4.85;;
70385;SDS011;63206;55.650;37.500;2023-04-06T01:36:40;12.25;;;5.13;;
70385;SDS011;63206;55.650;37.500;2023-04-06T01:39:44;10.35;;;4.47;;
70385;SDS011;63206;55.650;37.500;2023-04-06T01:42:37;11.55;;;5.05;;
70385;SDS011;63206;55.650;37.500;2023-04-06T01:45:29;11.35;;;5.93;;
70385;SDS011;63206;55.650;37.500;2023-04-06T01:48:07;12.10;;;4.65;;
70385;SDS011;63206;55.650;37.500;2023-04-06T01:50:44;9.70;;;4.38;;
70385;SDS011;63206;55.650;37.500;2023-04-06T01:53:33;10.95;;;4.75;;
70385;SDS011;63206;55.650;37.500;2023-04-06T01:56:10;12.45;;;4.97;;
70385;SDS011;63206;55.650;37.500;2023-04-06T01:58:53;11.63;;;5.20;;
70385;SDS011;63206;55.650;37.500;2023-04-06T02:01:30;12.50;;;5.30;;
70385;SDS011;63206;55.650;37.500;2023-04-06T02:04:02;12.05;;;5.40;;
70385;SDS011;63206;55.650;37.500;2023-04-06T02:06:36;12.63;;;5.78;;
70385;SDS011;63206;55.650;37.500;2023-04-06T02:09:14;12.65;;;5.13;;
70385;SDS011;63206;55.650;37.500;2023-04-06T02:11:50;14.18;;;5.53;;
70385;SDS011;63206;55.650;37.500;2023-04-06T02:14:36;12.40;;;5.55;;
70385;SDS011;63206;55.650;37.500;2023-04-06T02:17:20;12.80;;;4.90;;
70385;SDS011;63206;55.650;37.500;2023-04-06T02:19:51;11.50;;;5.50;;
70385;SDS011;63206;55.650;37.500;2023-04-06T02:22:30;10.95;;;5.38;;
70385;SDS011;63206;55.650;37.500;2023-04-06T02:25:08;12.43;;;4.85;;
70385;SDS011;63206;55.650;37.500;2023-04-06T02:27:42;12.30;;;4.93;;
70385;SDS011;63206;55.650;37.500;2023-04-06T02:30:19;12.88;;;5.20;;
70385;SDS011;63206;55.650;37.500;2023-04-06T02:35:33;12.98;;;5.18;;
70385;SDS011;63206;55.650;37.500;2023-04-06T02:38:07;15.25;;;5.25;;
70385;SDS011;63206;55.650;37.500;2023-04-06T02:40:44;13.30;;;5.43;;
70385;SDS011;63206;55.650;37.500;2023-04-06T02:43:27;14.27;;;5.50;;
70385;SDS011;63206;55.650;37.500;2023-04-06T02:46:20;11.80;;;5.43;;
70385;SDS011;63206;55.650;37.500;2023-04-06T02:49:00;12.77;;;5.50;;
70385;SDS011;63206;55.650;37.500;2023-04-06T02:51:36;12.65;;;5.15;;
70385;SDS011;63206;55.650;37.500;2023-04-06T02:54:20;13.52;;;5.47;;
70385;SDS011;63206;55.650;37.500;2023-04-06T02:57:00;11.95;;;5.15;;
70385;SDS011;63206;55.650;37.500;2023-04-06T02:59:46;11.50;;;5.07;;
70385;SDS011;63206;55.650;37.500;2023-04-06T03:02:39;12.43;;;5.20;;
70385;SDS011;63206;55.650;37.500;2023-04-06T03:05:17;13.38;;;5.85;;
70385;SDS011;63206;55.650;37.500;2023-04-06T03:07:57;14.85;;;5.53;;
70385;SDS011;63206;55.650;37.500;2023-04-06T03:10:44;12.13;;;5.13;;
70385;SDS011;63206;55.650;37.500;2023-04-06T03:13:17;13.20;;;5.40;;
70385;SDS011;63206;55.650;37.500;2023-04-06T03:15:58;11.52;;;5.18;;
70385;SDS011;63206;55.650;37.500;2023-04-06T03:18:35;11.48;;;5.05;;
70385;SDS011;63206;55.650;37.500;2023-04-06T03:21:24;12.02;;;5.28;;
70385;SDS011;63206;55.650;37.500;2023-04-06T03:24:11;11.70;;;5.55;;
70385;SDS011;63206;55.650;37.500;2023-04-06T03:26:45;11.48;;;5.20;;
70385;SDS011;63206;55.650;37.500;2023-04-06T03:29:25;14.30;;;5.60;;
70385;SDS011;63206;55.650;37.500;2023-04-06T03:32:10;13.18;;;5.63;;
70385;SDS011;63206;55.650;37.500;2023-04-06T03:34:49;11.00;;;4.88;;
70385;SDS011;63206;55.650;37.500;2023-04-06T03:37:34;11.05;;;4.82;;
70385;SDS011;63206;55.650;37.500;2023-04-06T03:40:21;12.70;;;5.43;;
70385;SDS011;63206;55.650;37.500;2023-04-06T03:43:04;14.07;;;4.95;;
70385;SDS011;63206;55.650;37.500;2023-04-06T03:45:47;14.60;;;5.57;;
70385;SDS011;63206;55.650;37.500;2023-04-06T03:48:24;11.43;;;5.18;;
70385;SDS011;63206;55.650;37.500;2023-04-06T03:51:05;13.45;;;5.45;;
70385;SDS011;63206;55.650;37.500;2023-04-06T03:53:42;11.77;;;5.32;;
70385;SDS011;63206;55.650;37.500;2023-04-06T03:56:29;11.60;;;4.80;;
70385;SDS011;63206;55.650;37.500;2023-04-06T03:59:15;11.23;;;5.00;;
70385;SDS011;63206;55.650;37.500;2023-04-06T04:01:49;13.38;;;5.22;;
70385;SDS011;63206;55.650;37.500;2023-04-06T04:04:31;11.25;;;5.32;;
70385;SDS011;63206;55.650;37.500;2023-04-06T04:07:06;12.43;;;5.10;;
70385;SDS011;63206;55.650;37.500;2023-04-06T04:09:46;12.13;;;5.20;;
70385;SDS011;63206;55.650;37.500;2023-04-06T04:12:14;10.05;;;4.78;;
70385;SDS011;63206;55.650;37.500;2023-04-06T04:14:53;10.45;;;4.82;;
70385;SDS011;63206;55.650;37.500;2023-04-06T04:17:27;11.00;;;4.70;;
70385;SDS011;63206;55.650;37.500;2023-04-06T04:20:05;12.65;;;5.07;;
70385;SDS011;63206;55.650;37.500;2023-04-06T04:22:42;10.57;;;4.68;;
70385;SDS011;63206;55.650;37.500;2023-04-06T04:25:21;11.77;;;5.05;;
70385;SDS011;63206;55.650;37.500;2023-04-06T04:27:52;11.57;;;4.82;;
70385;SDS011;63206;55.650;37.500;2023-04-06T04:30:39;11.80;;;4.35;;
70385;SDS011;63206;55.650;37.500;2023-04-06T04:33:23;14.48;;;5.38;;
70385;SDS011;63206;55.650;37.500;2023-04-06T04:36:09;10.45;;;4.95;;
70385;SDS011;63206;55.650;37.500;2023-04-06T04:38:55;9.93;;;4.50;;
70385;SDS011;63206;55.650;37.500;2023-04-06T04:41:47;12.68;;;5.22;;
70385;SDS011;63206;55.650;37.500;2023-04-06T04:44:25;9.98;;;4.65;;
70385;SDS011;63206;55.650;37.500;2023-04-06T04:47:05;10.32;;;4.70;;
70385;SDS011;63206;55.650;37.500;2023-04-06T04:49:49;12.30;;;5.15;;
70385;SDS011;63206;55.650;37.500;2023-04-06T04:52:20;11.45;;;4.80;;
70385;SDS011;63206;55.650;37.500;2023-04-06T04:55:06;11.90;;;5.07;;
70385;SDS011;63206;55.650;37.500;2023-04-06T04:57:47;11.15;;;5.13;;
70385;SDS011;63206;55.650;37.500;2023-04-06T05:00:35;11.10;;;4.35;;
70385;SDS011;63206;55.650;37.500;2023-04-06T05:03:06;12.10;;;4.80;;
70385;SDS011;63206;55.650;37.500;2023-04-06T05:05:49;11.50;;;4.88;;
70385;SDS011;63206;55.650;37.500;2023-04-06T05:08:29;13.65;;;4.65;;
70385;SDS011;63206;55.650;37.500;2023-04-06T05:11:13;11.05;;;4.85;;
70385;SDS011;63206;55.650;37.500;2023-04-06T05:13:57;12.27;;;4.75;;
70385;SDS011;63206;55.650;37.500;2023-04-06T05:16:35;12.20;;;4.90;;
70385;SDS011;63206;55.650;37.500;2023-04-06T05:19:07;12.77;;;4.75;;
70385;SDS011;63206;55.650;37.500;2023-04-06T05:21:49;11.18;;;4.68;;
70385;SDS011;63206;55.650;37.500;2023-04-06T05:24:17;10.27;;;4.75;;
70385;SDS011;63206;55.650;37.500;2023-04-06T05:27:02;11.05;;;4.57;;
70385;SDS011;63206;55.650;37.500;2023-04-06T05:29:30;12.00;;;4.47;;
70385;SDS011;63206;55.650;37.500;2023-04-06T05:32:11;14.32;;;5.00;;
70385;SDS011;63206;55.650;37.500;2023-04-06T05:34:55;15.20;;;5.82;;
70385;SDS011;63206;55.650;37.500;2023-04-06T05:37:33;14.27;;;5.60;;
70385;SDS011;63206;55.650;37.500;2023-04-06T05:40:12;14.52;;;4.93;;
70385;SDS011;63206;55.650;37.500;2023-04-06T05:42:53;11.55;;;4.85;;
70385;SDS011;63206;55.650;37.500;2023-04-06T05:45:37;11.45;;;4.38;;
70385;SDS011;63206;55.650;37.500;2023-04-06T05:48:24;11.93;;;4.30;;
70385;SDS011;63206;55.650;37.500;2023-04-06T05:51:09;14.18;;;5.45;;
70385;SDS011;63206;55.650;37.500;2023-04-06T05:53:56;10.25;;;4.60;;
70385;SDS011;63206;55.650;37.500;2023-04-06T05:56:42;17.52;;;4.80;;
70385;SDS011;63206;55.650;37.500;2023-04-06T05:59:30;11.20;;;4.80;;
70385;SDS011;63206;55.650;37.500;2023-04-06T06:02:05;16.70;;;5.63;;
70385;SDS011;63206;55.650;37.500;2023-04-06T06:04:47;12.23;;;4.75;;
70385;SDS011;63206;55.650;37.500;2023-04-06T06:07:36;14.60;;;5.47;;
70385;SDS011;63206;55.650;37.500;2023-04-06T06:10:13;13.55;;;5.38;;
70385;SDS011;63206;55.650;37.500;2023-04-06T06:12:51;14.65;;;6.53;;
70385;SDS011;63206;55.650;37.500;2023-04-06T06:18:21;20.35;;;5.85;;
70385;SDS011;63206;55.650;37.500;2023-04-06T06:20:56;10.05;;;4.80;;
70385;SDS011;63206;55.650;37.500;2023-04-06T06:23:34;11.10;;;4.95;;
70385;SDS011;63206;55.650;37.500;2023-04-06T06:26:22;13.77;;;5.20;;
70385;SDS011;63206;55.650;37.500;2023-04-06T06:29:04;13.05;;;5.30;;
70385;SDS011;63206;55.650;37.500;2023-04-06T06:31:51;14.68;;;5.10;;
70385;SDS011;63206;55.650;37.500;2023-04-06T06:34:31;13.63;;;5.38;;
70385;SDS011;63206;55.650;37.500;2023-04-06T06:37:19;11.55;;;4.80;;
70385;SDS011;63206;55.650;37.500;2023-04-06T06:40:00;14.15;;;5.50;;
70385;SDS011;63206;55.650;37.500;2023-04-06T06:42:34;10.75;;;4.90;;
70385;SDS011;63206;55.650;37.500;2023-04-06T06:45:35;13.70;;;5.30;;
70385;SDS011;63206;55.650;37.500;2023-04-06T06:48:15;13.88;;;5.05;;
70385;SDS011;63206;55.650;37.500;2023-04-06T06:50:47;13.48;;;5.20;;
70385;SDS011;63206;55.650;37.500;2023-04-06T06:53:27;11.65;;;4.60;;
70385;SDS011;63206;55.650;37.500;2023-04-06T06:56:13;25.80;;;7.32;;
70385;SDS011;63206;55.650;37.500;2023-04-06T06:58:53;14.75;;;5.38;;
70385;SDS011;63206;55.650;37.500;2023-04-06T07:01:24;12.30;;;5.55;;
70385;SDS011;63206;55.650;37.500;2023-04-06T07:04:11;13.63;;;5.03;;
70385;SDS011;63206;55.650;37.500;2023-04-06T07:06:58;18.17;;;5.70;;
70385;SDS011;63206;55.650;37.500;2023-04-06T07:09:45;14.30;;;5.10;;
70385;SDS011;63206;55.650;37.500;2023-04-06T07:12:22;19.23;;;5.97;;
70385;SDS011;63206;55.650;37.500;2023-04-06T07:15:03;16.25;;;6.10;;
70385;SDS011;63206;55.650;37.500;2023-04-06T07:17:43;21.35;;;5.82;;
70385;SDS011;63206;55.650;37.500;2023-04-06T07:20:18;17.15;;;5.88;;
70385;SDS011;63206;55.650;37.500;2023-04-06T07:22:59;19.75;;;5.38;;
70385;SDS011;63206;55.650;37.500;2023-04-06T07:25:40;36.45;;;8.52;;
70385;SDS011;63206;55.650;37.500;2023-04-06T07:28:17;16.92;;;6.10;;
70385;SDS011;63206;55.650;37.500;2023-04-06T07:30:58;11.20;;;4.72;;
70385;SDS011;63206;55.650;37.500;2023-04-06T07:33:31;21.30;;;6.43;;
70385;SDS011;63206;55.650;37.500;2023-04-06T07:36:17;18.17;;;5.20;;
70385;SDS011;63206;55.650;37.500;2023-04-06T07:38:47;25.70;;;6.07;;
70385;SDS011;63206;55.650;37.500;2023-04-06T07:41:31;18.60;;;5.85;;
70385;SDS011;63206;55.650;37.500;2023-04-06T07:44:09;16.13;;;5.60;;
70385;SDS011;63206;55.650;37.500;2023-04-06T07:46:54;11.68;;;5.10;;
70385;SDS011;63206;55.650;37.500;2023-04-06T07:52:06;11.00;;;4.40;;
70385;SDS011;63206;55.650;37.500;2023-04-06T07:54:53;20.60;;;5.05;;
70385;SDS011;63206;55.650;37.500;2023-04-06T07:57:31;14.55;;;4.45;;
70385;SDS011;63206;55.650;37.500;2023-04-06T08:00:06;16.23;;;4.75;;
70385;SDS011;63206;55.650;37.500;2023-04-06T08:02:44;16.08;;;7.15;;
70385;SDS011;63206;55.650;37.500;2023-04-06T08:08:11;17.95;;;5.18;;
70385;SDS011;63206;55.650;37.500;2023-04-06T08:10:46;15.63;;;4.72;;
70385;SDS011;63206;55.650;37.500;2023-04-06T08:13:33;15.05;;;4.75;;
70385;SDS011;63206;55.650;37.500;2023-04-06T08:16:19;16.58;;;4.45;;
70385;SDS011;63206;55.650;37.500;2023-04-06T08:19:06;12.43;;;4.78;;
70385;SDS011;63206;55.650;37.500;2023-04-06T08:21:42;12.45;;;4.15;;
70385;SDS011;63206;55.650;37.500;2023-04-06T08:24:23;15.68;;;4.53;;
70385;SDS011;63206;55.650;37.500;2023-04-06T08:27:03;10.80;;;4.13;;
70385;SDS011;63206;55.650;37.500;2023-04-06T08:29:50;11.77;;;4.43;;
70385;SDS011;63206;55.650;37.500;2023-04-06T08:32:28;15.52;;;4.60;;
70385;SDS011;63206;55.650;37.500;2023-04-06T08:35:00;14.82;;;4.63;;
70385;SDS011;63206;55.650;37.500;2023-04-06T08:37:40;15.13;;;5.20;;
70385;SDS011;63206;55.650;37.500;2023-04-06T08:40:21;18.20;;;4.15;;
70385;SDS011;63206;55.650;37.500;2023-04-06T08:43:12;14.02;;;4.65;;
70385;SDS011;63206;55.650;37.500;2023-04-06T08:45:50;15.82;;;5.50;;
70385;SDS011;63206;55.650;37.500;2023-04-06T08:48:33;14.10;;;4.38;;
70385;SDS011;63206;55.650;37.500;2023-04-06T08:51:06;14.60;;;4.25;;
70385;SDS011;63206;55.650;37.500;2023-04-06T08:53:46;15.60;;;4.15;;
70385;SDS011;63206;55.650;37.500;2023-04-06T08:56:37;22.23;;;4.47;;
70385;SDS011;63206;55.650;37.500;2023-04-06T08:59:12;12.45;;;3.78;;
70385;SDS011;63206;55.650;37.500;2023-04-06T09:01:53;15.23;;;4.32;;
70385;SDS011;63206;55.650;37.500;2023-04-06T09:04:41;13.27;;;4.47;;
70385;SDS011;63206;55.650;37.500;2023-04-06T09:07:21;10.07;;;4.03;;
70385;SDS011;63206;55.650;37.500;2023-04-06T09:10:08;12.77;;;3.88;;
70385;SDS011;63206;55.650;37.500;2023-04-06T09:12:45;10.85;;;3.85;;
70385;SDS011;63206;55.650;37.500;2023-04-06T09:15:20;11.70;;;3.67;;
70385;SDS011;63206;55.650;37.500;2023-04-06T09:18:07;12.63;;;4.28;;
70385;SDS011;63206;55.650;37.500;2023-04-06T09:20:45;11.43;;;3.67;;
70385;SDS011;63206;55.650;37.500;2023-04-06T09:23:20;15.60;;;4.18;;
70385;SDS011;63206;55.650;37.500;2023-04-06T09:26:04;19.23;;;4.55;;
70385;SDS011;63206;55.650;37.500;2023-04-06T09:28:52;11.55;;;4.03;;
70385;SDS011;63206;55.650;37.500;2023-04-06T09:31:28;12.10;;;3.97;;
70385;SDS011;63206;55.650;37.500;2023-04-06T09:34:20;13.05;;;4.25;;
70385;SDS011;63206;55.650;37.500;2023-04-06T09:36:53;11.02;;;5.00;;
70385;SDS011;63206;55.650;37.500;2023-04-06T09:39:40;11.27;;;4.97;;
70385;SDS011;63206;55.650;37.500;2023-04-06T09:42:27;12.18;;;4.40;;
70385;SDS011;63206;55.650;37.500;2023-04-06T09:45:08;22.88;;;5.03;;
70385;SDS011;63206;55.650;37.500;2023-04-06T09:47:40;14.20;;;4.78;;
70385;SDS011;63206;55.650;37.500;2023-04-06T09:50:26;14.82;;;4.82;;
70385;SDS011;63206;55.650;37.500;2023-04-06T09:53:12;11.60;;;4.55;;
70385;SDS011;63206;55.650;37.500;2023-04-06T09:55:57;11.90;;;5.07;;
70385;SDS011;63206;55.650;37.500;2023-04-06T09:58:37;13.02;;;4.95;;
70385;SDS011;63206;55.650;37.500;2023-04-06T10:01:21;12.05;;;5.07;;
70385;SDS011;63206;55.650;37.500;2023-04-06T10:04:09;15.02;;;5.45;;
70385;SDS011;63206;55.650;37.500;2023-04-06T10:06:50;11.57;;;5.13;;
70385;SDS011;63206;55.650;37.500;2023-04-06T10:09:29;14.45;;;4.75;;
70385;SDS011;63206;55.650;37.500;2023-04-06T10:12:07;13.05;;;4.90;;
70385;SDS011;63206;55.650;37.500;2023-04-06T10:14:47;12.05;;;3.95;;
70385;SDS011;63206;55.650;37.500;2023-04-06T10:17:34;16.50;;;4.35;;
70385;SDS011;63206;55.650;37.500;2023-04-06T10:20:08;13.85;;;4.30;;
70385;SDS011;63206;55.650;37.500;2023-04-06T10:23:19;9.82;;;3.92;;
70385;SDS011;63206;55.650;37.500;2023-04-06T10:25:53;8.77;;;3.80;;
70385;SDS011;63206;55.650;37.500;2023-04-06T10:28:41;10.77;;;3.83;;
70385;SDS011;63206;55.650;37.500;2023-04-06T10:31:28;11.48;;;3.92;;
70385;SDS011;63206;55.650;37.500;2023-04-06T10:34:08;13.23;;;3.92;;
70385;SDS011;63206;55.650;37.500;2023-04-06T10:36:48;9.50;;;3.90;;
70385;SDS011;63206;55.650;37.500;2023-04-06T10:39:26;8.52;;;3.55;;
70385;SDS011;63206;55.650;37.500;2023-04-06T10:42:05;17.65;;;7.28;;
70385;SDS011;63206;55.650;37.500;2023-04-06T10:44:43;11.35;;;4.63;;
70385;SDS011;63206;55.650;37.500;2023-04-06T10:47:20;13.68;;;4.32;;
70385;SDS011;63206;55.650;37.500;2023-04-06T10:50:04;9.02;;;3.97;;
70385;SDS011;63206;55.650;37.500;2023-04-06T10:52:58;10.15;;;3.85;;
70385;SDS011;63206;55.650;37.500;2023-04-06T10:55:27;10.80;;;3.80;;
70385;SDS011;63206;55.650;37.500;2023-04-06T10:58:06;15.20;;;4.50;;
70385;SDS011;63206;55.650;37.500;2023-04-06T11:00:53;15.15;;;4.35;;
70385;SDS011;63206;55.650;37.500;2023-04-06T11:03:31;30.23;;;5.10;;
70385;SDS011;63206;55.650;37.500;2023-04-06T11:06:25;13.88;;;4.65;;
70385;SDS011;63206;55.650;37.500;2023-04-06T11:08:58;13.48;;;4.43;;
70385;SDS011;63206;55.650;37.500;2023-04-06T11:11:38;11.82;;;4.05;;
70385;SDS011;63206;55.650;37.500;2023-04-06T11:14:12;11.00;;;3.55;;
70385;SDS011;63206;55.650;37.500;2023-04-06T11:16:46;11.55;;;3.55;;
70385;SDS011;63206;55.650;37.500;2023-04-06T11:19:27;8.85;;;3.67;;
70385;SDS011;63206;55.650;37.500;2023-04-06T11:22:05;9.18;;;4.20;;
70385;SDS011;63206;55.650;37.500;2023-04-06T11:24:46;10.77;;;3.78;;
70385;SDS011;63206;55.650;37.500;2023-04-06T11:27:21;13.48;;;4.05;;
70385;SDS011;63206;55.650;37.500;2023-04-06T11:29:58;12.82;;;3.92;;
70385;SDS011;63206;55.650;37.500;2023-04-06T11:32:41;11.30;;;3.60;;
70385;SDS011;63206;55.650;37.500;2023-04-06T11:35:23;8.77;;;3.85;;
70385;SDS011;63206;55.650;37.500;2023-04-06T11:38:09;8.63;;;3.65;;
70385;SDS011;63206;55.650;37.500;2023-04-06T11:40:53;8.80;;;3.55;;
70385;SDS011;63206;55.650;37.500;2023-04-06T11:43:28;21.55;;;4.72;;
70385;SDS011;63206;55.650;37.500;2023-04-06T11:46:06;20.52;;;3.70;;
70385;SDS011;63206;55.650;37.500;2023-04-06T11:48:47;14.32;;;4.00;;
70385;SDS011;63206;55.650;37.500;2023-04-06T11:51:25;10.88;;;4.00;;
70385;SDS011;63206;55.650;37.500;2023-04-06T11:54:04;13.05;;;3.53;;
70385;SDS011;63206;55.650;37.500;2023-04-06T11:56:41;14.00;;;4.40;;
70385;SDS011;63206;55.650;37.500;2023-04-06T11:59:12;9.77;;;3.72;;
70385;SDS011;63206;55.650;37.500;2023-04-06T12:01:49;10.18;;;3.47;;
70385;SDS011;63206;55.650;37.500;2023-04-06T12:04:23;12.50;;;3.78;;
70385;SDS011;63206;55.650;37.500;2023-04-06T12:07:03;11.55;;;3.85;;
70385;SDS011;63206;55.650;37.500;2023-04-06T12:09:42;9.23;;;3.30;;
70385;SDS011;63206;55.650;37.500;2023-04-06T12:12:13;12.48;;;4.18;;
70385;SDS011;63206;55.650;37.500;2023-04-06T12:14:55;14.20;;;3.28;;
70385;SDS011;63206;55.650;37.500;2023-04-06T12:17:23;10.90;;;3.30;;
70385;SDS011;63206;55.650;37.500;2023-04-06T12:20:00;13.05;;;3.75;;
70385;SDS011;63206;55.650;37.500;2023-04-06T12:22:31;14.10;;;4.10;;
70385;SDS011;63206;55.650;37.500;2023-04-06T12:25:09;16.50;;;3.97;;
70385;SDS011;63206;55.650;37.500;2023-04-06T12:27:43;10.55;;;3.70;;
70385;SDS011;63206;55.650;37.500;2023-04-06T12:30:16;8.98;;;3.63;;
70385;SDS011;63206;55.650;37.500;2023-04-06T12:32:56;6.80;;;3.15;;
70385;SDS011;63206;55.650;37.500;2023-04-06T12:35:27;9.63;;;3.63;;
70385;SDS011;63206;55.650;37.500;2023-04-06T12:38:14;10.95;;;3.75;;
70385;SDS011;63206;55.650;37.500;2023-04-06T12:40:52;8.88;;;3.47;;
70385;SDS011;63206;55.650;37.500;2023-04-06T12:43:41;17.52;;;3.60;;
70385;SDS011;63206;55.650;37.500;2023-04-06T12:46:22;8.88;;;3.22;;
70385;SDS011;63206;55.650;37.500;2023-04-06T12:48:59;8.73;;;3.38;;
70385;SDS011;63206;55.650;37.500;2023-04-06T12:51:38;7.80;;;3.45;;
70385;SDS011;63206;55.650;37.500;2023-04-06T12:54:19;8.35;;;3.60;;
70385;SDS011;63206;55.650;37.500;2023-04-06T12:56:50;8.73;;;3.30;;
70385;SDS011;63206;55.650;37.500;2023-04-06T12:59:24;9.55;;;3.88;;
70385;SDS011;63206;55.650;37.500;2023-04-06T13:01:58;9.55;;;3.63;;
70385;SDS011;63206;55.650;37.500;2023-04-06T13:04:44;8.82;;;3.40;;
70385;SDS011;63206;55.650;37.500;2023-04-06T13:07:22;15.48;;;3.78;;
70385;SDS011;63206;55.650;37.500;2023-04-06T13:09:59;10.07;;;3.28;;
70385;SDS011;63206;55.650;37.500;2023-04-06T13:12:44;11.35;;;3.20;;
70385;SDS011;63206;55.650;37.500;2023-04-06T13:15:24;19.35;;;4.43;;
70385;SDS011;63206;55.650;37.500;2023-04-06T13:17:58;8.50;;;3.67;;
70385;SDS011;63206;55.650;37.500;2023-04-06T13:20:38;15.07;;;4.05;;
70385;SDS011;63206;55.650;37.500;2023-04-06T13:23:16;9.38;;;3.40;;
70385;SDS011;63206;55.650;37.500;2023-04-06T13:26:06;12.00;;;3.95;;
70385;SDS011;63206;55.650;37.500;2023-04-06T13:28:44;12.73;;;3.92;;
70385;SDS011;63206;55.650;37.500;2023-04-06T13:31:14;10.55;;;3.58;;
70385;SDS011;63206;55.650;37.500;2023-04-06T13:34:01;13.38;;;3.40;;
70385;SDS011;63206;55.650;37.500;2023-04-06T13:36:32;10.32;;;2.90;;
70385;SDS011;63206;55.650;37.500;2023-04-06T13:39:03;7.53;;;3.15;;
70385;SDS011;63206;55.650;37.500;2023-04-06T13:41:40;10.80;;;3.28;;
70385;SDS011;63206;55.650;37.500;2023-04-06T13:44:11;8.55;;;3.53;;
70385;SDS011;63206;55.650;37.500;2023-04-06T13:46:49;14.07;;;4.10;;
70385;SDS011;63206;55.650;37.500;2023-04-06T13:49:24;10.80;;;3.40;;
70385;SDS011;63206;55.650;37.500;2023-04-06T13:55:28;9.60;;;3.33;;
70385;SDS011;63206;55.650;37.500;2023-04-06T13:58:07;7.55;;;3.08;;
70385;SDS011;63206;55.650;37.500;2023-04-06T14:00:38;10.20;;;3.05;;
70385;SDS011;63206;55.650;37.500;2023-04-06T14:03:15;9.65;;;3.33;;
70385;SDS011;63206;55.650;37.500;2023-04-06T14:05:49;10.38;;;3.25;;
70385;SDS011;63206;55.650;37.500;2023-04-06T14:08:19;13.02;;;3.40;;
70385;SDS011;63206;55.650;37.500;2023-04-06T14:10:51;11.82;;;4.40;;
70385;SDS011;63206;55.650;37.500;2023-04-06T14:13:35;9.63;;;3.10;;
70385;SDS011;63206;55.650;37.500;2023-04-06T14:16:03;16.40;;;3.30;;
70385;SDS011;63206;55.650;37.500;2023-04-06T14:18:37;7.80;;;3.15;;
70385;SDS011;63206;55.650;37.500;2023-04-06T14:21:09;9.45;;;2.90;;
70385;SDS011;63206;55.650;37.500;2023-04-06T14:23:42;11.27;;;3.17;;
70385;SDS011;63206;55.650;37.500;2023-04-06T14:26:14;11.65;;;3.00;;
70385;SDS011;63206;55.650;37.500;2023-04-06T14:28:48;8.20;;;3.30;;
70385;SDS011;63206;55.650;37.500;2023-04-06T14:31:23;10.18;;;3.28;;
70385;SDS011;63206;55.650;37.500;2023-04-06T14:34:09;5.93;;;2.53;;
70385;SDS011;63206;55.650;37.500;2023-04-06T14:36:55;11.13;;;2.75;;
70385;SDS011;63206;55.650;37.500;2023-04-06T14:39:29;7.22;;;2.67;;
70385;SDS011;63206;55.650;37.500;2023-04-06T14:42:09;11.32;;;2.80;;
70385;SDS011;63206;55.650;37.500;2023-04-06T14:44:43;16.00;;;3.33;;
70385;SDS011;63206;55.650;37.500;2023-04-06T14:47:22;10.82;;;2.88;;
70385;SDS011;63206;55.650;37.500;2023-04-06T14:49:56;12.18;;;2.75;;
70385;SDS011;63206;55.650;37.500;2023-04-06T14:52:27;7.97;;;2.50;;
70385;SDS011;63206;55.650;37.500;2023-04-06T14:55:05;9.50;;;2.90;;
70385;SDS011;63206;55.650;37.500;2023-04-06T14:57:36;7.10;;;2.40;;
70385;SDS011;63206;55.650;37.500;2023-04-06T15:00:23;9.35;;;2.47;;
70385;SDS011;63206;55.650;37.500;2023-04-06T15:03:00;7.22;;;2.30;;
70385;SDS011;63206;55.650;37.500;2023-04-06T15:05:28;8.50;;;2.60;;
70385;SDS011;63206;55.650;37.500;2023-04-06T15:08:12;7.57;;;2.47;;
70385;SDS011;63206;55.650;37.500;2023-04-06T15:10:58;7.15;;;2.30;;
70385;SDS011;63206;55.650;37.500;2023-04-06T15:13:39;7.95;;;2.65;;
70385;SDS011;63206;55.650;37.500;2023-04-06T15:16:20;8.60;;;2.38;;
70385;SDS011;63206;55.650;37.500;2023-04-06T15:18:50;5.57;;;2.10;;
70385;SDS011;63206;55.650;37.500;2023-04-06T15:21:37;7.70;;;2.45;;
70385;SDS011;63206;55.650;37.500;2023-04-06T15:24:08;7.70;;;2.35;;
70385;SDS011;63206;55.650;37.500;2023-04-06T15:26:48;10.55;;;2.95;;
70385;SDS011;63206;55.650;37.500;2023-04-06T15:29:33;9.73;;;2.53;;
70385;SDS011;63206;55.650;37.500;2023-04-06T15:32:10;6.70;;;2.30;;
70385;SDS011;63206;55.650;37.500;2023-04-06T15:34:44;8.55;;;2.40;;
70385;SDS011;63206;55.650;37.500;2023-04-06T15:37:15;11.73;;;2.28;;
70385;SDS011;63206;55.650;37.500;2023-04-06T15:39:59;6.93;;;2.30;;
70385;SDS011;63206;55.650;37.500;2023-04-06T15:42:31;10.30;;;2.30;;
70385;SDS011;63206;55.650;37.500;2023-04-06T15:45:02;8.57;;;2.38;;
70385;SDS011;63206;55.650;37.500;2023-04-06T15:47:33;7.57;;;2.42;;
70385;SDS011;63206;55.650;37.500;2023-04-06T15:50:04;5.72;;;2.13;;
70385;SDS011;63206;55.650;37.500;2023-04-06T15:52:35;9.18;;;2.17;;
70385;SDS011;63206;55.650;37.500;2023-04-06T15:55:07;5.22;;;2.10;;